Terminal Aerodrome Forecast
Issued by NWS Greer, SC

Home | Current Version | Previous Version | Text Only | Print | Product List | Glossary On
Versions: 1 2 3 4 5 6 7 8 9 10 11 12 13 14
000
FTUS42 KGSP 012330
TAFGSP
TAF
KGSP 012330Z 0200/0224 34004KT P6SM FEW250
     FM021200 03005KT P6SM SKC
     FM021600 09006KT P6SM FEW080=

USA.gov is the U.S. government's official web portal to all federal, state and local government web resources and services.